sensor_id;sensor_type;location;lat;lon;timestamp;temperature;humidity
32947;DHT22;54465;51.230;22.504;2022-10-29T00:02:03;12.40;99.90
32947;DHT22;54465;51.230;22.504;2022-10-29T00:05:08;12.40;99.90
32947;DHT22;54465;51.230;22.504;2022-10-29T00:08:11;12.40;99.90
32947;DHT22;54465;51.230;22.504;2022-10-29T00:11:17;12.30;99.90
32947;DHT22;54465;51.230;22.504;2022-10-29T00:14:20;12.30;99.90
32947;DHT22;54465;51.230;22.504;2022-10-29T00:17:23;12.30;99.90
32947;DHT22;54465;51.230;22.504;2022-10-29T00:20:27;12.30;99.90
32947;DHT22;54465;51.230;22.504;2022-10-29T00:23:29;12.20;99.90
32947;DHT22;54465;51.230;22.504;2022-10-29T00:26:32;12.20;99.90
32947;DHT22;54465;51.230;22.504;2022-10-29T00:29:35;12.20;99.90
32947;DHT22;54465;51.230;22.504;2022-10-29T00:32:38;12.20;99.90
32947;DHT22;54465;51.230;22.504;2022-10-29T00:35:41;12.10;99.90
32947;DHT22;54465;51.230;22.504;2022-10-29T00:38:44;12.10;99.90
32947;DHT22;54465;51.230;22.504;2022-10-29T00:41:46;12.10;99.90
32947;DHT22;54465;51.230;22.504;2022-10-29T00:44:48;12.20;99.90
32947;DHT22;54465;51.230;22.504;2022-10-29T00:47:51;12.00;99.90
32947;DHT22;54465;51.230;22.504;2022-10-29T00:50:57;12.00;99.90
32947;DHT22;54465;51.230;22.504;2022-10-29T00:54:02;12.00;99.90
32947;DHT22;54465;51.230;22.504;2022-10-29T00:57:08;11.90;99.90
32947;DHT22;54465;51.230;22.504;2022-10-29T01:00:13;11.90;99.90
32947;DHT22;54465;51.230;22.504;2022-10-29T01:03:16;11.90;99.90
32947;DHT22;54465;51.230;22.504;2022-10-29T01:06:19;11.90;99.90
32947;DHT22;54465;51.230;22.504;2022-10-29T01:09:21;11.90;99.90
32947;DHT22;54465;51.230;22.504;2022-10-29T01:12:38;11.80;99.90
32947;DHT22;54465;51.230;22.504;2022-10-29T01:15:51;11.80;99.90
32947;DHT22;54465;51.230;22.504;2022-10-29T01:19:03;11.70;99.90
32947;DHT22;54465;51.230;22.504;2022-10-29T01:22:14;11.70;99.90
32947;DHT22;54465;51.230;22.504;2022-10-29T01:25:41;11.70;99.90
32947;DHT22;54465;51.230;22.504;2022-10-29T01:29:02;11.70;99.90
32947;DHT22;54465;51.230;22.504;2022-10-29T01:32:11;11.70;99.90
32947;DHT22;54465;51.230;22.504;2022-10-29T01:35:17;11.70;99.90
32947;DHT22;54465;51.230;22.504;2022-10-29T01:38:27;11.60;99.90
32947;DHT22;54465;51.230;22.504;2022-10-29T01:41:50;11.60;99.90
32947;DHT22;54465;51.230;22.504;2022-10-29T01:44:59;11.60;99.90
32947;DHT22;54465;51.230;22.504;2022-10-29T01:48:09;11.60;99.90
32947;DHT22;54465;51.230;22.504;2022-10-29T01:51:16;11.60;99.90
32947;DHT22;54465;51.230;22.504;2022-10-29T01:54:20;11.60;99.90
32947;DHT22;54465;51.230;22.504;2022-10-29T01:57:27;11.60;99.90
32947;DHT22;54465;51.230;22.504;2022-10-29T02:00:36;11.60;99.90
32947;DHT22;54465;51.230;22.504;2022-10-29T02:03:51;11.60;99.90
32947;DHT22;54465;51.230;22.504;2022-10-29T02:07:03;11.50;99.90
32947;DHT22;54465;51.230;22.504;2022-10-29T02:10:17;11.50;99.90
32947;DHT22;54465;51.230;22.504;2022-10-29T02:13:21;11.50;99.90
32947;DHT22;54465;51.230;22.504;2022-10-29T02:16:25;11.50;99.90
32947;DHT22;54465;51.230;22.504;2022-10-29T02:19:31;11.40;99.90
32947;DHT22;54465;51.230;22.504;2022-10-29T02:22:33;11.50;99.90
32947;DHT22;54465;51.230;22.504;2022-10-29T02:25:35;11.50;99.90
32947;DHT22;54465;51.230;22.504;2022-10-29T02:28:38;11.40;99.90
32947;DHT22;54465;51.230;22.504;2022-10-29T02:31:40;11.50;99.90
32947;DHT22;54465;51.230;22.504;2022-10-29T02:34:44;11.50;99.90
32947;DHT22;54465;51.230;22.504;2022-10-29T02:37:46;11.50;99.90
32947;DHT22;54465;51.230;22.504;2022-10-29T02:40:48;11.60;99.90
32947;DHT22;54465;51.230;22.504;2022-10-29T02:43:51;11.50;99.90
32947;DHT22;54465;51.230;22.504;2022-10-29T02:46:53;11.60;99.90
32947;DHT22;54465;51.230;22.504;2022-10-29T02:49:56;11.60;99.90
32947;DHT22;54465;51.230;22.504;2022-10-29T02:52:59;11.50;99.90
32947;DHT22;54465;51.230;22.504;2022-10-29T02:56:01;11.60;99.90
32947;DHT22;54465;51.230;22.504;2022-10-29T02:59:03;11.50;99.90
32947;DHT22;54465;51.230;22.504;2022-10-29T03:02:06;11.50;99.90
32947;DHT22;54465;51.230;22.504;2022-10-29T03:05:10;11.50;99.90
32947;DHT22;54465;51.230;22.504;2022-10-29T03:08:12;11.60;99.90
32947;DHT22;54465;51.230;22.504;2022-10-29T03:11:16;11.50;99.90
32947;DHT22;54465;51.230;22.504;2022-10-29T03:14:18;11.60;99.90
32947;DHT22;54465;51.230;22.504;2022-10-29T03:17:21;11.60;99.90
32947;DHT22;54465;51.230;22.504;2022-10-29T03:20:24;11.60;99.90
32947;DHT22;54465;51.230;22.504;2022-10-29T03:23:27;11.60;99.90
32947;DHT22;54465;51.230;22.504;2022-10-29T03:26:29;11.60;99.90
32947;DHT22;54465;51.230;22.504;2022-10-29T03:29:31;11.60;99.90
32947;DHT22;54465;51.230;22.504;2022-10-29T03:32:33;11.60;99.90
32947;DHT22;54465;51.230;22.504;2022-10-29T03:35:37;11.60;99.90
32947;DHT22;54465;51.230;22.504;2022-10-29T03:38:39;11.50;99.90
32947;DHT22;54465;51.230;22.504;2022-10-29T03:41:41;11.50;99.90
32947;DHT22;54465;51.230;22.504;2022-10-29T03:44:44;11.50;99.90
32947;DHT22;54465;51.230;22.504;2022-10-29T03:47:46;11.50;99.90
32947;DHT22;54465;51.230;22.504;2022-10-29T03:50:55;11.50;99.90
32947;DHT22;54465;51.230;22.504;2022-10-29T03:53:57;11.60;99.90
32947;DHT22;54465;51.230;22.504;2022-10-29T03:56:59;11.50;99.90
32947;DHT22;54465;51.230;22.504;2022-10-29T04:00:04;11.50;99.90
32947;DHT22;54465;51.230;22.504;2022-10-29T04:03:13;11.50;99.90
32947;DHT22;54465;51.230;22.504;2022-10-29T04:06:17;11.50;99.90
32947;DHT22;54465;51.230;22.504;2022-10-29T04:09:19;11.40;99.90
32947;DHT22;54465;51.230;22.504;2022-10-29T04:12:22;11.40;99.90
32947;DHT22;54465;51.230;22.504;2022-10-29T04:15:24;11.40;99.90
32947;DHT22;54465;51.230;22.504;2022-10-29T04:18:26;11.50;99.90
32947;DHT22;54465;51.230;22.504;2022-10-29T04:21:29;11.40;99.90
32947;DHT22;54465;51.230;22.504;2022-10-29T04:24:31;11.40;99.90
32947;DHT22;54465;51.230;22.504;2022-10-29T04:27:34;11.40;99.90
32947;DHT22;54465;51.230;22.504;2022-10-29T04:30:36;11.40;99.90
32947;DHT22;54465;51.230;22.504;2022-10-29T04:33:38;11.40;99.90
32947;DHT22;54465;51.230;22.504;2022-10-29T04:36:42;11.30;99.90
32947;DHT22;54465;51.230;22.504;2022-10-29T04:39:44;11.30;99.90
32947;DHT22;54465;51.230;22.504;2022-10-29T04:42:46;11.30;99.90
32947;DHT22;54465;51.230;22.504;2022-10-29T04:45:51;11.30;99.90
32947;DHT22;54465;51.230;22.504;2022-10-29T04:48:53;11.30;99.90
32947;DHT22;54465;51.230;22.504;2022-10-29T04:51:56;11.30;99.90
32947;DHT22;54465;51.230;22.504;2022-10-29T04:54:59;11.30;99.90
32947;DHT22;54465;51.230;22.504;2022-10-29T04:58:01;11.30;99.90
32947;DHT22;54465;51.230;22.504;2022-10-29T05:01:04;11.30;99.90
32947;DHT22;54465;51.230;22.504;2022-10-29T05:04:07;11.30;99.90
32947;DHT22;54465;51.230;22.504;2022-10-29T05:07:10;11.20;99.90
32947;DHT22;54465;51.230;22.504;2022-10-29T05:10:13;11.20;99.90
32947;DHT22;54465;51.230;22.504;2022-10-29T05:13:15;11.30;99.90
32947;DHT22;54465;51.230;22.504;2022-10-29T05:16:18;11.30;99.90
32947;DHT22;54465;51.230;22.504;2022-10-29T05:19:20;11.30;99.90
32947;DHT22;54465;51.230;22.504;2022-10-29T05:22:24;11.30;99.90
32947;DHT22;54465;51.230;22.504;2022-10-29T05:25:28;11.30;99.90
32947;DHT22;54465;51.230;22.504;2022-10-29T05:28:30;11.30;99.90
32947;DHT22;54465;51.230;22.504;2022-10-29T05:31:33;11.30;99.90
32947;DHT22;54465;51.230;22.504;2022-10-29T05:34:35;11.40;99.90
32947;DHT22;54465;51.230;22.504;2022-10-29T05:37:40;11.40;99.90
32947;DHT22;54465;51.230;22.504;2022-10-29T05:40:43;11.50;99.90
32947;DHT22;54465;51.230;22.504;2022-10-29T05:43:48;11.50;99.90
32947;DHT22;54465;51.230;22.504;2022-10-29T05:46:50;11.60;99.90
32947;DHT22;54465;51.230;22.504;2022-10-29T05:49:53;11.60;99.90
32947;DHT22;54465;51.230;22.504;2022-10-29T05:52:58;11.70;99.90
32947;DHT22;54465;51.230;22.504;2022-10-29T05:56:01;11.70;99.90
32947;DHT22;54465;51.230;22.504;2022-10-29T05:59:06;11.70;99.90
32947;DHT22;54465;51.230;22.504;2022-10-29T06:02:08;11.80;99.90
32947;DHT22;54465;51.230;22.504;2022-10-29T06:05:11;11.80;99.90
32947;DHT22;54465;51.230;22.504;2022-10-29T06:08:16;11.90;99.90
32947;DHT22;54465;51.230;22.504;2022-10-29T06:11:19;11.90;99.90
32947;DHT22;54465;51.230;22.504;2022-10-29T06:14:22;11.90;99.90
32947;DHT22;54465;51.230;22.504;2022-10-29T06:17:25;12.00;99.90
32947;DHT22;54465;51.230;22.504;2022-10-29T06:20:28;12.10;99.90
32947;DHT22;54465;51.230;22.504;2022-10-29T06:23:32;12.10;99.90
32947;DHT22;54465;51.230;22.504;2022-10-29T06:26:34;12.10;99.90
32947;DHT22;54465;51.230;22.504;2022-10-29T06:29:37;12.20;99.90
32947;DHT22;54465;51.230;22.504;2022-10-29T06:32:39;12.10;99.90
32947;DHT22;54465;51.230;22.504;2022-10-29T06:35:41;12.20;99.90
32947;DHT22;54465;51.230;22.504;2022-10-29T06:38:45;12.20;99.90
32947;DHT22;54465;51.230;22.504;2022-10-29T06:41:47;12.30;99.90
32947;DHT22;54465;51.230;22.504;2022-10-29T06:44:53;12.40;99.90
32947;DHT22;54465;51.230;22.504;2022-10-29T06:48:03;12.40;99.90
32947;DHT22;54465;51.230;22.504;2022-10-29T06:51:11;12.50;99.90
32947;DHT22;54465;51.230;22.504;2022-10-29T06:54:16;12.40;99.90
32947;DHT22;54465;51.230;22.504;2022-10-29T06:57:20;12.50;99.90
32947;DHT22;54465;51.230;22.504;2022-10-29T07:00:29;12.50;99.90
32947;DHT22;54465;51.230;22.504;2022-10-29T07:03:37;12.50;99.90
32947;DHT22;54465;51.230;22.504;2022-10-29T07:06:39;12.60;99.90
32947;DHT22;54465;51.230;22.504;2022-10-29T07:09:45;12.60;99.90
32947;DHT22;54465;51.230;22.504;2022-10-29T07:12:56;12.70;99.90
32947;DHT22;54465;51.230;22.504;2022-10-29T07:16:00;12.70;99.90
32947;DHT22;54465;51.230;22.504;2022-10-29T07:19:02;12.70;99.90
32947;DHT22;54465;51.230;22.504;2022-10-29T07:22:05;12.80;99.90
32947;DHT22;54465;51.230;22.504;2022-10-29T07:25:10;12.80;99.90
32947;DHT22;54465;51.230;22.504;2022-10-29T07:28:17;12.90;99.90
32947;DHT22;54465;51.230;22.504;2022-10-29T07:31:20;13.00;99.90
32947;DHT22;54465;51.230;22.504;2022-10-29T07:34:23;13.00;99.90
32947;DHT22;54465;51.230;22.504;2022-10-29T07:37:26;13.00;99.90
32947;DHT22;54465;51.230;22.504;2022-10-29T07:40:30;13.00;99.90
32947;DHT22;54465;51.230;22.504;2022-10-29T07:43:33;13.10;99.90
32947;DHT22;54465;51.230;22.504;2022-10-29T07:46:36;13.00;99.90
32947;DHT22;54465;51.230;22.504;2022-10-29T07:49:38;13.10;99.90
32947;DHT22;54465;51.230;22.504;2022-10-29T07:52:41;13.30;99.90
32947;DHT22;54465;51.230;22.504;2022-10-29T07:55:51;13.40;99.90
32947;DHT22;54465;51.230;22.504;2022-10-29T07:58:56;13.50;99.90
32947;DHT22;54465;51.230;22.504;2022-10-29T08:01:58;13.60;99.90
32947;DHT22;54465;51.230;22.504;2022-10-29T08:05:04;13.80;99.90
32947;DHT22;54465;51.230;22.504;2022-10-29T08:08:07;13.90;99.90
32947;DHT22;54465;51.230;22.504;2022-10-29T08:11:11;14.00;99.90
32947;DHT22;54465;51.230;22.504;2022-10-29T08:14:15;14.20;99.90
32947;DHT22;54465;51.230;22.504;2022-10-29T08:17:21;14.20;99.90
32947;DHT22;54465;51.230;22.504;2022-10-29T08:20:26;14.30;99.90
32947;DHT22;54465;51.230;22.504;2022-10-29T08:23:28;14.50;99.90
32947;DHT22;54465;51.230;22.504;2022-10-29T08:26:32;14.60;99.90
32947;DHT22;54465;51.230;22.504;2022-10-29T08:29:35;14.70;99.90
32947;DHT22;54465;51.230;22.504;2022-10-29T08:32:43;14.80;99.90
32947;DHT22;54465;51.230;22.504;2022-10-29T08:35:46;14.90;99.90
32947;DHT22;54465;51.230;22.504;2022-10-29T08:38:49;15.10;99.90
32947;DHT22;54465;51.230;22.504;2022-10-29T08:42:04;15.20;99.90
32947;DHT22;54465;51.230;22.504;2022-10-29T08:45:19;15.40;99.90
32947;DHT22;54465;51.230;22.504;2022-10-29T08:48:36;15.50;99.90
32947;DHT22;54465;51.230;22.504;2022-10-29T08:51:43;15.50;99.90
32947;DHT22;54465;51.230;22.504;2022-10-29T08:54:53;15.50;99.90
32947;DHT22;54465;51.230;22.504;2022-10-29T08:58:04;15.50;99.90
32947;DHT22;54465;51.230;22.504;2022-10-29T09:01:13;15.50;99.90
32947;DHT22;54465;51.230;22.504;2022-10-29T09:04:23;15.50;99.90
32947;DHT22;54465;51.230;22.504;2022-10-29T09:11:08;15.80;99.90
32947;DHT22;54465;51.230;22.504;2022-10-29T09:18:08;16.10;99.90
32947;DHT22;54465;51.230;22.504;2022-10-29T09:21:30;16.20;99.90
32947;DHT22;54465;51.230;22.504;2022-10-29T09:24:38;16.30;99.90
32947;DHT22;54465;51.230;22.504;2022-10-29T09:27:52;16.50;99.90
32947;DHT22;54465;51.230;22.504;2022-10-29T09:31:05;16.60;99.90
32947;DHT22;54465;51.230;22.504;2022-10-29T09:34:16;16.70;99.90
32947;DHT22;54465;51.230;22.504;2022-10-29T09:37:22;16.80;99.90
32947;DHT22;54465;51.230;22.504;2022-10-29T09:40:30;16.90;99.90
32947;DHT22;54465;51.230;22.504;2022-10-29T09:43:42;17.00;99.90
32947;DHT22;54465;51.230;22.504;2022-10-29T09:46:57;17.10;99.90
32947;DHT22;54465;51.230;22.504;2022-10-29T09:50:15;17.20;99.90
32947;DHT22;54465;51.230;22.504;2022-10-29T09:53:22;17.30;99.90
32947;DHT22;54465;51.230;22.504;2022-10-29T09:56:26;17.40;99.90
32947;DHT22;54465;51.230;22.504;2022-10-29T09:59:33;17.40;99.90
32947;DHT22;54465;51.230;22.504;2022-10-29T10:02:41;17.60;99.90
32947;DHT22;54465;51.230;22.504;2022-10-29T10:06:04;17.80;99.90
32947;DHT22;54465;51.230;22.504;2022-10-29T10:09:07;17.90;99.90
32947;DHT22;54465;51.230;22.504;2022-10-29T10:12:10;18.00;99.90
32947;DHT22;54465;51.230;22.504;2022-10-29T10:15:20;18.00;99.90
32947;DHT22;54465;51.230;22.504;2022-10-29T10:18:26;17.90;99.90
32947;DHT22;54465;51.230;22.504;2022-10-29T10:21:32;18.10;99.90
32947;DHT22;54465;51.230;22.504;2022-10-29T10:24:35;18.30;99.90
32947;DHT22;54465;51.230;22.504;2022-10-29T10:27:38;18.40;99.90
32947;DHT22;54465;51.230;22.504;2022-10-29T10:30:42;18.50;99.90
32947;DHT22;54465;51.230;22.504;2022-10-29T10:33:50;18.70;99.90
32947;DHT22;54465;51.230;22.504;2022-10-29T10:37:04;18.70;99.90
32947;DHT22;54465;51.230;22.504;2022-10-29T10:40:19;18.80;99.90
32947;DHT22;54465;51.230;22.504;2022-10-29T10:43:27;18.90;99.90
32947;DHT22;54465;51.230;22.504;2022-10-29T10:46:57;18.90;99.90
32947;DHT22;54465;51.230;22.504;2022-10-29T10:50:11;19.00;99.90
32947;DHT22;54465;51.230;22.504;2022-10-29T10:56:58;18.70;99.90
32947;DHT22;54465;51.230;22.504;2022-10-29T11:00:04;18.70;99.90
32947;DHT22;54465;51.230;22.504;2022-10-29T11:03:13;18.60;99.90
32947;DHT22;54465;51.230;22.504;2022-10-29T11:06:19;18.70;99.90
32947;DHT22;54465;51.230;22.504;2022-10-29T11:09:28;18.60;99.90
32947;DHT22;54465;51.230;22.504;2022-10-29T11:12:37;18.70;99.90
32947;DHT22;54465;51.230;22.504;2022-10-29T11:15:47;18.80;99.90
32947;DHT22;54465;51.230;22.504;2022-10-29T11:18:57;18.90;99.90
32947;DHT22;54465;51.230;22.504;2022-10-29T11:22:06;18.80;99.90
32947;DHT22;54465;51.230;22.504;2022-10-29T11:25:15;18.60;99.90
32947;DHT22;54465;51.230;22.504;2022-10-29T11:28:26;18.50;99.90
32947;DHT22;54465;51.230;22.504;2022-10-29T11:31:46;18.50;99.90
32947;DHT22;54465;51.230;22.504;2022-10-29T11:34:58;18.50;99.90
32947;DHT22;54465;51.230;22.504;2022-10-29T11:38:09;18.40;99.90
32947;DHT22;54465;51.230;22.504;2022-10-29T11:41:24;18.40;99.90
32947;DHT22;54465;51.230;22.504;2022-10-29T11:44:33;18.40;99.90
32947;DHT22;54465;51.230;22.504;2022-10-29T11:47:49;18.30;99.90
32947;DHT22;54465;51.230;22.504;2022-10-29T11:51:02;18.30;99.90
32947;DHT22;54465;51.230;22.504;2022-10-29T11:58:43;18.20;99.90
32947;DHT22;54465;51.230;22.504;2022-10-29T12:01:53;18.20;99.90
32947;DHT22;54465;51.230;22.504;2022-10-29T12:05:01;18.20;99.90
32947;DHT22;54465;51.230;22.504;2022-10-29T12:08:27;18.20;99.90
32947;DHT22;54465;51.230;22.504;2022-10-29T12:11:42;18.30;99.90
32947;DHT22;54465;51.230;22.504;2022-10-29T12:14:56;18.30;99.90
32947;DHT22;54465;51.230;22.504;2022-10-29T12:18:13;18.40;99.90
32947;DHT22;54465;51.230;22.504;2022-10-29T12:21:27;18.40;99.90
32947;DHT22;54465;51.230;22.504;2022-10-29T12:24:48;18.50;99.90
32947;DHT22;54465;51.230;22.504;2022-10-29T12:28:08;18.60;99.90
32947;DHT22;54465;51.230;22.504;2022-10-29T12:31:24;18.60;99.90
32947;DHT22;54465;51.230;22.504;2022-10-29T12:34:32;18.60;99.90
32947;DHT22;54465;51.230;22.504;2022-10-29T12:37:43;18.70;99.90
32947;DHT22;54465;51.230;22.504;2022-10-29T12:41:11;18.80;99.90
32947;DHT22;54465;51.230;22.504;2022-10-29T12:44:21;18.90;99.90
32947;DHT22;54465;51.230;22.504;2022-10-29T12:47:31;19.00;99.90
32947;DHT22;54465;51.230;22.504;2022-10-29T12:50:48;19.10;99.90
32947;DHT22;54465;51.230;22.504;2022-10-29T12:54:10;19.20;99.90
32947;DHT22;54465;51.230;22.504;2022-10-29T12:57:27;19.20;99.90
32947;DHT22;54465;51.230;22.504;2022-10-29T13:00:44;19.20;99.90
32947;DHT22;54465;51.230;22.504;2022-10-29T13:03:59;19.20;99.90
32947;DHT22;54465;51.230;22.504;2022-10-29T13:07:21;19.20;99.90
32947;DHT22;54465;51.230;22.504;2022-10-29T13:10:48;19.10;99.90
32947;DHT22;54465;51.230;22.504;2022-10-29T13:13:53;19.10;99.90
32947;DHT22;54465;51.230;22.504;2022-10-29T13:16:58;19.10;99.90
32947;DHT22;54465;51.230;22.504;2022-10-29T13:20:04;19.10;99.90
32947;DHT22;54465;51.230;22.504;2022-10-29T13:27:03;19.10;99.90
32947;DHT22;54465;51.230;22.504;2022-10-29T13:30:17;19.20;99.90
32947;DHT22;54465;51.230;22.504;2022-10-29T13:33:48;19.30;99.90
32947;DHT22;54465;51.230;22.504;2022-10-29T13:36:51;19.30;99.90
32947;DHT22;54465;51.230;22.504;2022-10-29T13:43:31;19.20;99.90
32947;DHT22;54465;51.230;22.504;2022-10-29T13:46:43;19.20;99.90
32947;DHT22;54465;51.230;22.504;2022-10-29T13:49:47;19.20;99.90
32947;DHT22;54465;51.230;22.504;2022-10-29T13:52:52;19.20;99.90
32947;DHT22;54465;51.230;22.504;2022-10-29T13:55:57;19.10;99.90
32947;DHT22;54465;51.230;22.504;2022-10-29T13:59:05;19.10;99.90
32947;DHT22;54465;51.230;22.504;2022-10-29T14:02:20;19.00;99.90
32947;DHT22;54465;51.230;22.504;2022-10-29T14:05:28;19.00;99.90
32947;DHT22;54465;51.230;22.504;2022-10-29T14:08:39;18.80;99.90
32947;DHT22;54465;51.230;22.504;2022-10-29T14:11:44;18.80;99.90
32947;DHT22;54465;51.230;22.504;2022-10-29T14:14:55;18.70;99.90
32947;DHT22;54465;51.230;22.504;2022-10-29T14:18:15;18.60;99.90
32947;DHT22;54465;51.230;22.504;2022-10-29T14:21:23;18.60;99.90
32947;DHT22;54465;51.230;22.504;2022-10-29T14:24:25;18.50;99.90
32947;DHT22;54465;51.230;22.504;2022-10-29T14:27:28;18.40;99.90
32947;DHT22;54465;51.230;22.504;2022-10-29T14:30:32;18.40;99.90
32947;DHT22;54465;51.230;22.504;2022-10-29T14:33:36;18.40;99.90
32947;DHT22;54465;51.230;22.504;2022-10-29T14:36:41;18.30;99.90
32947;DHT22;54465;51.230;22.504;2022-10-29T14:39:46;18.30;99.90
32947;DHT22;54465;51.230;22.504;2022-10-29T14:42:54;18.20;99.90
32947;DHT22;54465;51.230;22.504;2022-10-29T14:46:13;18.20;99.90
32947;DHT22;54465;51.230;22.504;2022-10-29T14:49:22;18.10;99.90
32947;DHT22;54465;51.230;22.504;2022-10-29T14:52:28;18.10;99.90
32947;DHT22;54465;51.230;22.504;2022-10-29T14:55:35;18.00;99.90
32947;DHT22;54465;51.230;22.504;2022-10-29T14:58:40;18.00;99.90
32947;DHT22;54465;51.230;22.504;2022-10-29T15:01:47;17.90;99.90
32947;DHT22;54465;51.230;22.504;2022-10-29T15:04:55;17.80;99.90
32947;DHT22;54465;51.230;22.504;2022-10-29T15:08:12;17.70;99.90
32947;DHT22;54465;51.230;22.504;2022-10-29T15:11:34;17.70;99.90
32947;DHT22;54465;51.230;22.504;2022-10-29T15:14:44;17.70;99.90
32947;DHT22;54465;51.230;22.504;2022-10-29T15:18:00;17.50;99.90
32947;DHT22;54465;51.230;22.504;2022-10-29T15:21:06;17.50;99.90
32947;DHT22;54465;51.230;22.504;2022-10-29T15:24:13;17.40;99.90
32947;DHT22;54465;51.230;22.504;2022-10-29T15:27:21;17.40;99.90
32947;DHT22;54465;51.230;22.504;2022-10-29T15:30:31;17.40;99.90
32947;DHT22;54465;51.230;22.504;2022-10-29T15:33:37;17.30;99.90
32947;DHT22;54465;51.230;22.504;2022-10-29T15:36:48;17.30;99.90
32947;DHT22;54465;51.230;22.504;2022-10-29T15:40:03;17.30;99.90
32947;DHT22;54465;51.230;22.504;2022-10-29T15:43:27;17.20;99.90
32947;DHT22;54465;51.230;22.504;2022-10-29T15:46:33;17.20;99.90
32947;DHT22;54465;51.230;22.504;2022-10-29T15:49:38;17.10;99.90
32947;DHT22;54465;51.230;22.504;2022-10-29T15:52:42;17.10;99.90
32947;DHT22;54465;51.230;22.504;2022-10-29T15:55:45;17.10;99.90
32947;DHT22;54465;51.230;22.504;2022-10-29T15:58:52;17.00;99.90
32947;DHT22;54465;51.230;22.504;2022-10-29T16:01:57;17.00;99.90
32947;DHT22;54465;51.230;22.504;2022-10-29T16:05:01;17.00;99.90
32947;DHT22;54465;51.230;22.504;2022-10-29T16:08:04;17.00;99.90
32947;DHT22;54465;51.230;22.504;2022-10-29T16:11:11;17.00;99.90
32947;DHT22;54465;51.230;22.504;2022-10-29T16:14:14;16.90;99.90
32947;DHT22;54465;51.230;22.504;2022-10-29T16:17:18;16.90;99.90
32947;DHT22;54465;51.230;22.504;2022-10-29T16:20:22;16.90;99.90
32947;DHT22;54465;51.230;22.504;2022-10-29T16:23:25;16.80;99.90
32947;DHT22;54465;51.230;22.504;2022-10-29T16:26:30;16.80;99.90
32947;DHT22;54465;51.230;22.504;2022-10-29T16:29:32;16.80;99.90
32947;DHT22;54465;51.230;22.504;2022-10-29T16:32:34;16.80;99.90
32947;DHT22;54465;51.230;22.504;2022-10-29T16:35:39;16.70;99.90
32947;DHT22;54465;51.230;22.504;2022-10-29T16:38:41;16.70;99.90
32947;DHT22;54465;51.230;22.504;2022-10-29T16:41:43;16.70;99.90
32947;DHT22;54465;51.230;22.504;2022-10-29T16:44:46;16.70;99.90
32947;DHT22;54465;51.230;22.504;2022-10-29T16:47:50;16.70;99.90
32947;DHT22;54465;51.230;22.504;2022-10-29T16:50:54;16.70;99.90
32947;DHT22;54465;51.230;22.504;2022-10-29T16:53:57;16.60;99.90
32947;DHT22;54465;51.230;22.504;2022-10-29T16:56:59;16.60;99.90
32947;DHT22;54465;51.230;22.504;2022-10-29T17:00:02;16.60;99.90
32947;DHT22;54465;51.230;22.504;2022-10-29T17:03:05;16.50;99.90
32947;DHT22;54465;51.230;22.504;2022-10-29T17:06:10;16.50;99.90
32947;DHT22;54465;51.230;22.504;2022-10-29T17:09:12;16.50;99.90
32947;DHT22;54465;51.230;22.504;2022-10-29T17:12:14;16.50;99.90
32947;DHT22;54465;51.230;22.504;2022-10-29T17:15:16;16.40;99.90
32947;DHT22;54465;51.230;22.504;2022-10-29T17:18:19;16.40;99.90
32947;DHT22;54465;51.230;22.504;2022-10-29T17:21:28;16.40;99.90
32947;DHT22;54465;51.230;22.504;2022-10-29T17:24:31;16.40;99.90
32947;DHT22;54465;51.230;22.504;2022-10-29T17:27:37;16.40;99.90
32947;DHT22;54465;51.230;22.504;2022-10-29T17:30:39;16.30;99.90
32947;DHT22;54465;51.230;22.504;2022-10-29T17:33:41;16.30;99.90
32947;DHT22;54465;51.230;22.504;2022-10-29T17:36:46;16.30;99.90
32947;DHT22;54465;51.230;22.504;2022-10-29T17:39:49;16.30;99.90
32947;DHT22;54465;51.230;22.504;2022-10-29T17:42:51;16.30;99.90
32947;DHT22;54465;51.230;22.504;2022-10-29T17:45:54;16.20;99.90
32947;DHT22;54465;51.230;22.504;2022-10-29T17:48:57;16.20;99.90
32947;DHT22;54465;51.230;22.504;2022-10-29T17:52:04;16.20;99.90
32947;DHT22;54465;51.230;22.504;2022-10-29T17:55:06;16.20;99.90
32947;DHT22;54465;51.230;22.504;2022-10-29T17:58:09;16.20;99.90
32947;DHT22;54465;51.230;22.504;2022-10-29T18:01:11;16.20;99.90
32947;DHT22;54465;51.230;22.504;2022-10-29T18:04:13;16.20;99.90
32947;DHT22;54465;51.230;22.504;2022-10-29T18:07:17;16.20;99.90
32947;DHT22;54465;51.230;22.504;2022-10-29T18:10:19;16.20;99.90
32947;DHT22;54465;51.230;22.504;2022-10-29T18:13:22;16.20;99.90
32947;DHT22;54465;51.230;22.504;2022-10-29T18:16:26;16.10;99.90
32947;DHT22;54465;51.230;22.504;2022-10-29T18:19:29;16.10;99.90
32947;DHT22;54465;51.230;22.504;2022-10-29T18:22:32;16.10;99.90
32947;DHT22;54465;51.230;22.504;2022-10-29T18:25:35;16.10;99.90
32947;DHT22;54465;51.230;22.504;2022-10-29T18:28:37;16.10;99.90
32947;DHT22;54465;51.230;22.504;2022-10-29T18:31:40;16.10;99.90
32947;DHT22;54465;51.230;22.504;2022-10-29T18:34:44;16.10;99.90
32947;DHT22;54465;51.230;22.504;2022-10-29T18:37:48;16.00;99.90
32947;DHT22;54465;51.230;22.504;2022-10-29T18:40:54;16.00;99.90
32947;DHT22;54465;51.230;22.504;2022-10-29T18:43:57;16.00;99.90
32947;DHT22;54465;51.230;22.504;2022-10-29T18:47:03;16.00;99.90
32947;DHT22;54465;51.230;22.504;2022-10-29T18:50:06;16.00;99.90
32947;DHT22;54465;51.230;22.504;2022-10-29T18:53:10;16.00;99.90
32947;DHT22;54465;51.230;22.504;2022-10-29T18:56:15;15.90;99.90
32947;DHT22;54465;51.230;22.504;2022-10-29T18:59:18;15.90;99.90
32947;DHT22;54465;51.230;22.504;2022-10-29T19:02:21;15.90;99.90
32947;DHT22;54465;51.230;22.504;2022-10-29T19:05:23;15.90;99.90
32947;DHT22;54465;51.230;22.504;2022-10-29T19:08:28;15.90;99.90
32947;DHT22;54465;51.230;22.504;2022-10-29T19:11:34;15.90;99.90
32947;DHT22;54465;51.230;22.504;2022-10-29T19:14:37;15.90;99.90
32947;DHT22;54465;51.230;22.504;2022-10-29T19:17:39;15.80;99.90
32947;DHT22;54465;51.230;22.504;2022-10-29T19:20:41;15.80;99.90
32947;DHT22;54465;51.230;22.504;2022-10-29T19:23:45;15.90;99.90
32947;DHT22;54465;51.230;22.504;2022-10-29T19:26:47;15.80;99.90
32947;DHT22;54465;51.230;22.504;2022-10-29T19:29:51;15.80;99.90
32947;DHT22;54465;51.230;22.504;2022-10-29T19:32:53;15.80;99.90
32947;DHT22;54465;51.230;22.504;2022-10-29T19:35:56;15.80;99.90
32947;DHT22;54465;51.230;22.504;2022-10-29T19:39:08;15.70;99.90
32947;DHT22;54465;51.230;22.504;2022-10-29T19:42:10;15.70;99.90